sensor_id;sensor_type;location;lat;lon;timestamp;temperature;humidity
83596;HTU21D;73564;45.026;38.952;2024-02-23T00:02:18;9.26;61.11
83596;HTU21D;73564;45.026;38.952;2024-02-23T00:04:44;9.31;60.57
83596;HTU21D;73564;45.026;38.952;2024-02-23T00:07:10;9.33;60.66
83596;HTU21D;73564;45.026;38.952;2024-02-23T00:09:37;9.32;59.92
83596;HTU21D;73564;45.026;38.952;2024-02-23T00:12:03;9.23;60.06
83596;HTU21D;73564;45.026;38.952;2024-02-23T00:14:31;9.09;59.58
83596;HTU21D;73564;45.026;38.952;2024-02-23T00:16:58;8.93;60.45
83596;HTU21D;73564;45.026;38.952;2024-02-23T00:19:24;8.80;60.14
83596;HTU21D;73564;45.026;38.952;2024-02-23T00:21:50;8.66;61.09
83596;HTU21D;73564;45.026;38.952;2024-02-23T00:24:18;8.61;60.51
83596;HTU21D;73564;45.026;38.952;2024-02-23T00:26:49;8.44;60.78
83596;HTU21D;73564;45.026;38.952;2024-02-23T00:29:17;8.23;60.68
83596;HTU21D;73564;45.026;38.952;2024-02-23T00:31:43;7.99;60.34
83596;HTU21D;73564;45.026;38.952;2024-02-23T00:34:11;7.62;60.47
83596;HTU21D;73564;45.026;38.952;2024-02-23T00:36:41;7.37;61.05
83596;HTU21D;73564;45.026;38.952;2024-02-23T00:39:08;7.08;62.08
83596;HTU21D;73564;45.026;38.952;2024-02-23T00:41:34;6.90;63.21
83596;HTU21D;73564;45.026;38.952;2024-02-23T00:44:00;6.85;62.42
83596;HTU21D;73564;45.026;38.952;2024-02-23T00:46:26;6.70;62.24
83596;HTU21D;73564;45.026;38.952;2024-02-23T00:48:52;6.53;63.73
83596;HTU21D;73564;45.026;38.952;2024-02-23T00:51:17;6.54;66.30
83596;HTU21D;73564;45.026;38.952;2024-02-23T00:53:43;6.61;64.74
83596;HTU21D;73564;45.026;38.952;2024-02-23T00:56:09;6.72;65.41
83596;HTU21D;73564;45.026;38.952;2024-02-23T00:58:35;6.87;66.25
83596;HTU21D;73564;45.026;38.952;2024-02-23T01:01:00;7.00;64.21
83596;HTU21D;73564;45.026;38.952;2024-02-23T01:03:26;6.99;64.14
83596;HTU21D;73564;45.026;38.952;2024-02-23T01:05:52;7.05;66.59
83596;HTU21D;73564;45.026;38.952;2024-02-23T01:08:19;7.33;66.93
83596;HTU21D;73564;45.026;38.952;2024-02-23T01:10:44;7.61;66.12
83596;HTU21D;73564;45.026;38.952;2024-02-23T01:13:10;7.85;65.95
83596;HTU21D;73564;45.026;38.952;2024-02-23T01:15:36;8.02;63.85
83596;HTU21D;73564;45.026;38.952;2024-02-23T01:18:03;8.08;64.36
83596;HTU21D;73564;45.026;38.952;2024-02-23T01:20:29;8.15;63.79
83596;HTU21D;73564;45.026;38.952;2024-02-23T01:22:54;8.20;64.14
83596;HTU21D;73564;45.026;38.952;2024-02-23T01:25:20;8.32;63.77
83596;HTU21D;73564;45.026;38.952;2024-02-23T01:27:46;8.45;64.03
83596;HTU21D;73564;45.026;38.952;2024-02-23T01:30:12;8.57;64.15
83596;HTU21D;73564;45.026;38.952;2024-02-23T01:32:38;8.73;63.83
83596;HTU21D;73564;45.026;38.952;2024-02-23T01:35:07;8.86;62.37
83596;HTU21D;73564;45.026;38.952;2024-02-23T01:37:34;8.87;62.52
83596;HTU21D;73564;45.026;38.952;2024-02-23T01:40:00;8.93;62.96
83596;HTU21D;73564;45.026;38.952;2024-02-23T01:42:26;8.98;61.34
83596;HTU21D;73564;45.026;38.952;2024-02-23T01:44:52;8.88;61.76
83596;HTU21D;73564;45.026;38.952;2024-02-23T01:47:18;8.74;61.11
83596;HTU21D;73564;45.026;38.952;2024-02-23T01:49:47;8.52;61.60
83596;HTU21D;73564;45.026;38.952;2024-02-23T01:52:13;8.36;62.41
83596;HTU21D;73564;45.026;38.952;2024-02-23T01:54:40;8.38;63.92
83596;HTU21D;73564;45.026;38.952;2024-02-23T01:57:06;8.55;63.96
83596;HTU21D;73564;45.026;38.952;2024-02-23T01:59:35;8.72;62.86
83596;HTU21D;73564;45.026;38.952;2024-02-23T02:02:03;8.68;61.49
83596;HTU21D;73564;45.026;38.952;2024-02-23T02:04:29;8.44;61.08
83596;HTU21D;73564;45.026;38.952;2024-02-23T02:06:59;8.19;61.57
83596;HTU21D;73564;45.026;38.952;2024-02-23T02:09:26;7.98;62.90
83596;HTU21D;73564;45.026;38.952;2024-02-23T02:11:52;8.00;64.59
83596;HTU21D;73564;45.026;38.952;2024-02-23T02:14:18;8.17;64.00
83596;HTU21D;73564;45.026;38.952;2024-02-23T02:16:44;8.27;63.67
83596;HTU21D;73564;45.026;38.952;2024-02-23T02:19:11;8.30;63.47
83596;HTU21D;73564;45.026;38.952;2024-02-23T02:21:37;8.34;63.98
83596;HTU21D;73564;45.026;38.952;2024-02-23T02:24:04;8.47;64.56
83596;HTU21D;73564;45.026;38.952;2024-02-23T02:26:30;8.62;63.73
83596;HTU21D;73564;45.026;38.952;2024-02-23T02:28:56;8.75;63.23
83596;HTU21D;73564;45.026;38.952;2024-02-23T02:31:22;8.86;63.09
83596;HTU21D;73564;45.026;38.952;2024-02-23T02:33:48;8.95;62.96
83596;HTU21D;73564;45.026;38.952;2024-02-23T02:36:13;9.06;62.11
83596;HTU21D;73564;45.026;38.952;2024-02-23T02:38:39;9.04;61.15
83596;HTU21D;73564;45.026;38.952;2024-02-23T02:41:05;8.87;61.31
83596;HTU21D;73564;45.026;38.952;2024-02-23T02:43:31;8.70;61.67
83596;HTU21D;73564;45.026;38.952;2024-02-23T02:45:57;8.56;62.25
83596;HTU21D;73564;45.026;38.952;2024-02-23T02:48:23;8.52;62.67
83596;HTU21D;73564;45.026;38.952;2024-02-23T02:50:50;8.41;61.72
83596;HTU21D;73564;45.026;38.952;2024-02-23T02:53:16;8.22;61.96
83596;HTU21D;73564;45.026;38.952;2024-02-23T02:55:43;8.06;62.40
83596;HTU21D;73564;45.026;38.952;2024-02-23T02:58:10;7.97;63.37
83596;HTU21D;73564;45.026;38.952;2024-02-23T03:00:36;7.92;63.10
83596;HTU21D;73564;45.026;38.952;2024-02-23T03:03:02;7.94;64.83
83596;HTU21D;73564;45.026;38.952;2024-02-23T03:05:27;8.09;64.27
83596;HTU21D;73564;45.026;38.952;2024-02-23T03:07:53;8.20;63.40
83596;HTU21D;73564;45.026;38.952;2024-02-23T03:10:19;8.14;62.98
83596;HTU21D;73564;45.026;38.952;2024-02-23T03:12:45;8.06;62.76
83596;HTU21D;73564;45.026;38.952;2024-02-23T03:15:10;7.92;63.86
83596;HTU21D;73564;45.026;38.952;2024-02-23T03:17:36;7.94;63.89
83596;HTU21D;73564;45.026;38.952;2024-02-23T03:20:02;8.03;64.74
83596;HTU21D;73564;45.026;38.952;2024-02-23T03:22:31;8.13;63.73
83596;HTU21D;73564;45.026;38.952;2024-02-23T03:24:57;8.18;64.40
83596;HTU21D;73564;45.026;38.952;2024-02-23T03:27:28;8.31;64.29
83596;HTU21D;73564;45.026;38.952;2024-02-23T03:29:54;8.37;63.10
83596;HTU21D;73564;45.026;38.952;2024-02-23T03:32:20;8.32;63.47
83596;HTU21D;73564;45.026;38.952;2024-02-23T03:34:46;8.32;63.63
83596;HTU21D;73564;45.026;38.952;2024-02-23T03:37:11;8.38;64.06
83596;HTU21D;73564;45.026;38.952;2024-02-23T03:39:38;8.52;64.69
83596;HTU21D;73564;45.026;38.952;2024-02-23T03:42:04;8.71;64.17
83596;HTU21D;73564;45.026;38.952;2024-02-23T03:44:29;8.90;64.24
83596;HTU21D;73564;45.026;38.952;2024-02-23T03:46:57;9.06;62.98
83596;HTU21D;73564;45.026;38.952;2024-02-23T03:49:22;9.16;62.01
83596;HTU21D;73564;45.026;38.952;2024-02-23T03:51:48;9.16;62.99
83596;HTU21D;73564;45.026;38.952;2024-02-23T03:54:14;9.29;62.98
83596;HTU21D;73564;45.026;38.952;2024-02-23T03:56:40;9.41;62.77
83596;HTU21D;73564;45.026;38.952;2024-02-23T03:59:07;9.54;62.50
83596;HTU21D;73564;45.026;38.952;2024-02-23T04:01:38;9.68;62.30
83596;HTU21D;73564;45.026;38.952;2024-02-23T04:04:05;9.81;61.79
83596;HTU21D;73564;45.026;38.952;2024-02-23T04:06:31;9.90;61.42
83596;HTU21D;73564;45.026;38.952;2024-02-23T04:08:57;9.95;60.97
83596;HTU21D;73564;45.026;38.952;2024-02-23T04:11:23;9.90;60.75
83596;HTU21D;73564;45.026;38.952;2024-02-23T04:13:49;9.84;61.11
83596;HTU21D;73564;45.026;38.952;2024-02-23T04:16:14;9.86;61.44
83596;HTU21D;73564;45.026;38.952;2024-02-23T04:18:40;9.91;61.16
83596;HTU21D;73564;45.026;38.952;2024-02-23T04:21:06;9.95;61.02
83596;HTU21D;73564;45.026;38.952;2024-02-23T04:23:31;9.99;61.34
83596;HTU21D;73564;45.026;38.952;2024-02-23T04:25:58;10.08;61.12
83596;HTU21D;73564;45.026;38.952;2024-02-23T04:28:24;10.13;60.26
83596;HTU21D;73564;45.026;38.952;2024-02-23T04:30:52;10.04;60.64
83596;HTU21D;73564;45.026;38.952;2024-02-23T04:33:17;10.04;60.70
83596;HTU21D;73564;45.026;38.952;2024-02-23T04:35:43;10.03;60.54
83596;HTU21D;73564;45.026;38.952;2024-02-23T04:38:09;9.95;60.43
83596;HTU21D;73564;45.026;38.952;2024-02-23T04:40:35;9.88;60.39
83596;HTU21D;73564;45.026;38.952;2024-02-23T04:43:01;9.77;60.83
83596;HTU21D;73564;45.026;38.952;2024-02-23T04:45:26;9.71;60.38
83596;HTU21D;73564;45.026;38.952;2024-02-23T04:47:52;9.61;61.33
83596;HTU21D;73564;45.026;38.952;2024-02-23T04:50:18;9.63;61.86
83596;HTU21D;73564;45.026;38.952;2024-02-23T04:52:43;9.75;61.92
83596;HTU21D;73564;45.026;38.952;2024-02-23T04:55:09;9.83;60.61
83596;HTU21D;73564;45.026;38.952;2024-02-23T04:57:36;9.62;60.22
83596;HTU21D;73564;45.026;38.952;2024-02-23T05:00:04;9.46;61.96
83596;HTU21D;73564;45.026;38.952;2024-02-23T05:02:29;9.51;62.47
83596;HTU21D;73564;45.026;38.952;2024-02-23T05:05:04;9.69;62.63
83596;HTU21D;73564;45.026;38.952;2024-02-23T05:07:33;9.86;62.23
83596;HTU21D;73564;45.026;38.952;2024-02-23T05:09:59;10.01;61.79
83596;HTU21D;73564;45.026;38.952;2024-02-23T05:12:25;10.12;61.12
83596;HTU21D;73564;45.026;38.952;2024-02-23T05:14:51;10.15;60.99
83596;HTU21D;73564;45.026;38.952;2024-02-23T05:17:17;10.21;61.21
83596;HTU21D;73564;45.026;38.952;2024-02-23T05:19:43;10.28;61.15
83596;HTU21D;73564;45.026;38.952;2024-02-23T05:22:09;10.38;61.00
83596;HTU21D;73564;45.026;38.952;2024-02-23T05:24:34;10.44;60.57
83596;HTU21D;73564;45.026;38.952;2024-02-23T05:27:00;10.44;60.22
83596;HTU21D;73564;45.026;38.952;2024-02-23T05:29:28;10.39;60.15
83596;HTU21D;73564;45.026;38.952;2024-02-23T05:31:54;10.25;59.57
83596;HTU21D;73564;45.026;38.952;2024-02-23T05:34:20;9.89;59.81
83596;HTU21D;73564;45.026;38.952;2024-02-23T05:36:47;9.53;60.88
83596;HTU21D;73564;45.026;38.952;2024-02-23T05:39:13;9.45;61.34
83596;HTU21D;73564;45.026;38.952;2024-02-23T05:41:43;9.39;61.70
83596;HTU21D;73564;45.026;38.952;2024-02-23T05:44:09;9.34;61.38
83596;HTU21D;73564;45.026;38.952;2024-02-23T05:46:36;9.37;63.00
83596;HTU21D;73564;45.026;38.952;2024-02-23T05:49:03;9.53;62.20
83596;HTU21D;73564;45.026;38.952;2024-02-23T05:51:30;9.66;62.92
83596;HTU21D;73564;45.026;38.952;2024-02-23T05:53:57;9.88;61.92
83596;HTU21D;73564;45.026;38.952;2024-02-23T05:56:22;10.01;62.16
83596;HTU21D;73564;45.026;38.952;2024-02-23T05:58:51;10.23;62.12
83596;HTU21D;73564;45.026;38.952;2024-02-23T06:01:18;10.36;61.07
83596;HTU21D;73564;45.026;38.952;2024-02-23T06:03:44;10.46;60.64
83596;HTU21D;73564;45.026;38.952;2024-02-23T06:06:10;10.53;60.57
83596;HTU21D;73564;45.026;38.952;2024-02-23T06:08:36;10.53;60.77
83596;HTU21D;73564;45.026;38.952;2024-02-23T06:11:03;10.59;60.94
83596;HTU21D;73564;45.026;38.952;2024-02-23T06:13:30;10.69;60.62
83596;HTU21D;73564;45.026;38.952;2024-02-23T06:15:56;10.78;60.53
83596;HTU21D;73564;45.026;38.952;2024-02-23T06:18:21;10.85;60.14
83596;HTU21D;73564;45.026;38.952;2024-02-23T06:20:49;10.87;60.64
83596;HTU21D;73564;45.026;38.952;2024-02-23T06:23:16;11.02;60.29
83596;HTU21D;73564;45.026;38.952;2024-02-23T06:25:41;11.17;60.11
83596;HTU21D;73564;45.026;38.952;2024-02-23T06:28:07;11.31;59.87
83596;HTU21D;73564;45.026;38.952;2024-02-23T06:30:33;11.42;59.84
83596;HTU21D;73564;45.026;38.952;2024-02-23T06:32:59;11.57;59.83
83596;HTU21D;73564;45.026;38.952;2024-02-23T06:35:24;11.76;59.49
83596;HTU21D;73564;45.026;38.952;2024-02-23T06:37:50;11.90;59.31
83596;HTU21D;73564;45.026;38.952;2024-02-23T06:40:16;12.06;59.23
83596;HTU21D;73564;45.026;38.952;2024-02-23T06:42:42;12.22;58.97
83596;HTU21D;73564;45.026;38.952;2024-02-23T06:45:08;12.38;58.77
83596;HTU21D;73564;45.026;38.952;2024-02-23T06:47:33;12.53;58.30
83596;HTU21D;73564;45.026;38.952;2024-02-23T06:49:59;12.64;57.90
83596;HTU21D;73564;45.026;38.952;2024-02-23T06:52:25;12.76;57.93
83596;HTU21D;73564;45.026;38.952;2024-02-23T06:54:54;12.92;57.64
83596;HTU21D;73564;45.026;38.952;2024-02-23T06:57:19;13.05;57.06
83596;HTU21D;73564;45.026;38.952;2024-02-23T06:59:45;13.17;56.70
83596;HTU21D;73564;45.026;38.952;2024-02-23T07:02:11;13.19;56.42
83596;HTU21D;73564;45.026;38.952;2024-02-23T07:04:36;13.21;56.31
83596;HTU21D;73564;45.026;38.952;2024-02-23T07:07:02;13.26;56.41
83596;HTU21D;73564;45.026;38.952;2024-02-23T07:09:33;13.34;55.79
83596;HTU21D;73564;45.026;38.952;2024-02-23T07:11:59;13.35;56.10
83596;HTU21D;73564;45.026;38.952;2024-02-23T07:14:25;13.41;56.03
83596;HTU21D;73564;45.026;38.952;2024-02-23T07:16:50;13.49;56.00
83596;HTU21D;73564;45.026;38.952;2024-02-23T07:19:18;13.56;55.36
83596;HTU21D;73564;45.026;38.952;2024-02-23T07:21:45;13.60;55.99
83596;HTU21D;73564;45.026;38.952;2024-02-23T07:24:13;13.69;55.61
83596;HTU21D;73564;45.026;38.952;2024-02-23T07:26:39;13.76;55.29
83596;HTU21D;73564;45.026;38.952;2024-02-23T07:29:06;13.79;55.12
83596;HTU21D;73564;45.026;38.952;2024-02-23T07:31:32;13.79;55.07
83596;HTU21D;73564;45.026;38.952;2024-02-23T07:33:58;13.82;55.29
83596;HTU21D;73564;45.026;38.952;2024-02-23T07:36:23;13.88;54.60
83596;HTU21D;73564;45.026;38.952;2024-02-23T07:38:49;13.82;54.56
83596;HTU21D;73564;45.026;38.952;2024-02-23T07:41:15;13.70;55.09
83596;HTU21D;73564;45.026;38.952;2024-02-23T07:43:43;13.71;55.34
83596;HTU21D;73564;45.026;38.952;2024-02-23T07:46:09;13.80;55.42
83596;HTU21D;73564;45.026;38.952;2024-02-23T07:48:36;13.90;54.83
83596;HTU21D;73564;45.026;38.952;2024-02-23T07:51:05;13.91;54.75
83596;HTU21D;73564;45.026;38.952;2024-02-23T07:53:31;13.88;55.01
83596;HTU21D;73564;45.026;38.952;2024-02-23T07:55:57;13.84;54.90
83596;HTU21D;73564;45.026;38.952;2024-02-23T07:58:25;13.88;55.63
83596;HTU21D;73564;45.026;38.952;2024-02-23T08:00:52;14.03;55.40
83596;HTU21D;73564;45.026;38.952;2024-02-23T08:03:19;14.13;55.13
83596;HTU21D;73564;45.026;38.952;2024-02-23T08:05:45;14.22;55.22
83596;HTU21D;73564;45.026;38.952;2024-02-23T08:08:10;14.35;55.39
83596;HTU21D;73564;45.026;38.952;2024-02-23T08:10:36;14.48;55.03
83596;HTU21D;73564;45.026;38.952;2024-02-23T08:13:02;14.59;54.72
83596;HTU21D;73564;45.026;38.952;2024-02-23T08:15:28;14.64;54.49
83596;HTU21D;73564;45.026;38.952;2024-02-23T08:17:54;14.69;54.13
83596;HTU21D;73564;45.026;38.952;2024-02-23T08:20:21;14.68;54.26
83596;HTU21D;73564;45.026;38.952;2024-02-23T08:22:47;14.64;54.16
83596;HTU21D;73564;45.026;38.952;2024-02-23T08:25:13;14.62;54.30
83596;HTU21D;73564;45.026;38.952;2024-02-23T08:27:40;14.55;54.33
83596;HTU21D;73564;45.026;38.952;2024-02-23T08:30:07;14.49;54.21
83596;HTU21D;73564;45.026;38.952;2024-02-23T08:32:33;14.41;54.43
83596;HTU21D;73564;45.026;38.952;2024-02-23T08:34:59;14.36;54.79
83596;HTU21D;73564;45.026;38.952;2024-02-23T08:37:28;14.32;54.88
83596;HTU21D;73564;45.026;38.952;2024-02-23T08:39:54;14.27;54.74
83596;HTU21D;73564;45.026;38.952;2024-02-23T08:42:20;14.20;54.81
83596;HTU21D;73564;45.026;38.952;2024-02-23T08:44:46;14.17;54.87
83596;HTU21D;73564;45.026;38.952;2024-02-23T08:47:12;14.12;55.05
83596;HTU21D;73564;45.026;38.952;2024-02-23T08:49:37;14.09;54.98
83596;HTU21D;73564;45.026;38.952;2024-02-23T08:52:04;14.07;55.30
83596;HTU21D;73564;45.026;38.952;2024-02-23T08:54:30;14.06;55.28
83596;HTU21D;73564;45.026;38.952;2024-02-23T08:56:56;14.04;54.97
83596;HTU21D;73564;45.026;38.952;2024-02-23T08:59:22;14.04;55.10
83596;HTU21D;73564;45.026;38.952;2024-02-23T09:01:48;14.06;54.30
83596;HTU21D;73564;45.026;38.952;2024-02-23T09:04:13;14.04;54.52
83596;HTU21D;73564;45.026;38.952;2024-02-23T09:06:39;14.04;54.78
83596;HTU21D;73564;45.026;38.952;2024-02-23T09:09:05;14.07;55.23
83596;HTU21D;73564;45.026;38.952;2024-02-23T09:11:31;14.17;55.06
83596;HTU21D;73564;45.026;38.952;2024-02-23T09:13:57;14.27;55.14
83596;HTU21D;73564;45.026;38.952;2024-02-23T09:16:23;14.35;54.75
83596;HTU21D;73564;45.026;38.952;2024-02-23T09:18:50;14.40;54.84
83596;HTU21D;73564;45.026;38.952;2024-02-23T09:21:16;14.49;54.30
83596;HTU21D;73564;45.026;38.952;2024-02-23T09:23:42;14.50;53.90
83596;HTU21D;73564;45.026;38.952;2024-02-23T09:26:11;14.44;54.04
83596;HTU21D;73564;45.026;38.952;2024-02-23T09:28:37;14.41;53.72
83596;HTU21D;73564;45.026;38.952;2024-02-23T09:31:03;14.35;53.23
83596;HTU21D;73564;45.026;38.952;2024-02-23T09:33:30;14.25;53.86
83596;HTU21D;73564;45.026;38.952;2024-02-23T09:35:57;14.27;54.52
83596;HTU21D;73564;45.026;38.952;2024-02-23T09:38:23;14.32;54.74
83596;HTU21D;73564;45.026;38.952;2024-02-23T09:40:52;14.39;54.51
83596;HTU21D;73564;45.026;38.952;2024-02-23T09:43:20;14.42;53.53
83596;HTU21D;73564;45.026;38.952;2024-02-23T09:45:46;14.37;54.17
83596;HTU21D;73564;45.026;38.952;2024-02-23T09:48:14;14.38;54.08
83596;HTU21D;73564;45.026;38.952;2024-02-23T09:50:43;14.39;53.99
83596;HTU21D;73564;45.026;38.952;2024-02-23T09:53:11;14.38;53.42
83596;HTU21D;73564;45.026;38.952;2024-02-23T09:55:38;14.34;53.83
83596;HTU21D;73564;45.026;38.952;2024-02-23T09:58:04;14.36;53.87
83596;HTU21D;73564;45.026;38.952;2024-02-23T10:00:33;14.44;53.31
83596;HTU21D;73564;45.026;38.952;2024-02-23T10:03:00;14.42;53.38
83596;HTU21D;73564;45.026;38.952;2024-02-23T10:05:30;14.37;52.84
83596;HTU21D;73564;45.026;38.952;2024-02-23T10:07:57;14.26;52.94
83596;HTU21D;73564;45.026;38.952;2024-02-23T10:10:33;14.22;53.04
83596;HTU21D;73564;45.026;38.952;2024-02-23T10:13:00;14.21;52.88
83596;HTU21D;73564;45.026;38.952;2024-02-23T10:15:29;14.15;52.67
83596;HTU21D;73564;45.026;38.952;2024-02-23T10:17:55;14.08;52.93
83596;HTU21D;73564;45.026;38.952;2024-02-23T10:20:21;14.06;53.34
83596;HTU21D;73564;45.026;38.952;2024-02-23T10:22:47;14.11;53.32
83596;HTU21D;73564;45.026;38.952;2024-02-23T10:25:13;14.23;54.01
83596;HTU21D;73564;45.026;38.952;2024-02-23T10:27:41;14.40;54.07
83596;HTU21D;73564;45.026;38.952;2024-02-23T10:30:09;14.57;54.60
83596;HTU21D;73564;45.026;38.952;2024-02-23T10:32:38;14.72;54.17
83596;HTU21D;73564;45.026;38.952;2024-02-23T10:35:09;14.86;54.10
83596;HTU21D;73564;45.026;38.952;2024-02-23T10:37:36;14.98;53.43
83596;HTU21D;73564;45.026;38.952;2024-02-23T10:40:02;15.04;53.32
83596;HTU21D;73564;45.026;38.952;2024-02-23T10:42:33;15.10;52.77
83596;HTU21D;73564;45.026;38.952;2024-02-23T10:45:01;15.03;51.88
83596;HTU21D;73564;45.026;38.952;2024-02-23T10:47:27;14.87;51.38
83596;HTU21D;73564;45.026;38.952;2024-02-23T10:49:53;14.91;53.02
83596;HTU21D;73564;45.026;38.952;2024-02-23T10:52:20;15.01;53.14
83596;HTU21D;73564;45.026;38.952;2024-02-23T10:54:47;15.12;53.11
83596;HTU21D;73564;45.026;38.952;2024-02-23T10:57:14;15.14;50.02
83596;HTU21D;73564;45.026;38.952;2024-02-23T10:59:40;15.18;53.16
83596;HTU21D;73564;45.026;38.952;2024-02-23T11:02:07;15.23;51.69
83596;HTU21D;73564;45.026;38.952;2024-02-23T11:04:33;15.21;52.22
83596;HTU21D;73564;45.026;38.952;2024-02-23T11:06:59;15.21;51.90
83596;HTU21D;73564;45.026;38.952;2024-02-23T11:09:31;15.22;52.29
83596;HTU21D;73564;45.026;38.952;2024-02-23T11:11:58;15.26;51.98
83596;HTU21D;73564;45.026;38.952;2024-02-23T11:14:37;15.28;51.50
83596;HTU21D;73564;45.026;38.952;2024-02-23T11:17:04;15.34;52.49
83596;HTU21D;73564;45.026;38.952;2024-02-23T11:19:38;15.47;52.73
83596;HTU21D;73564;45.026;38.952;2024-02-23T11:22:05;15.61;52.96
83596;HTU21D;73564;45.026;38.952;2024-02-23T11:24:34;15.71;53.04
83596;HTU21D;73564;45.026;38.952;2024-02-23T11:27:01;15.86;52.74
83596;HTU21D;73564;45.026;38.952;2024-02-23T11:29:34;16.00;52.91
83596;HTU21D;73564;45.026;38.952;2024-02-23T11:32:01;16.13;53.28
83596;HTU21D;73564;45.026;38.952;2024-02-23T11:34:30;16.30;53.17
83596;HTU21D;73564;45.026;38.952;2024-02-23T11:36:56;16.54;53.06
83596;HTU21D;73564;45.026;38.952;2024-02-23T11:39:24;16.70;52.04
83596;HTU21D;73564;45.026;38.952;2024-02-23T11:41:51;16.75;52.30
83596;HTU21D;73564;45.026;38.952;2024-02-23T11:44:17;16.78;52.44
83596;HTU21D;73564;45.026;38.952;2024-02-23T11:46:43;16.84;52.40
83596;HTU21D;73564;45.026;38.952;2024-02-23T11:49:11;16.88;52.40
83596;HTU21D;73564;45.026;38.952;2024-02-23T11:51:36;16.90;52.03
83596;HTU21D;73564;45.026;38.952;2024-02-23T11:54:02;16.90;51.95
83596;HTU21D;73564;45.026;38.952;2024-02-23T11:56:29;16.90;51.99
83596;HTU21D;73564;45.026;38.952;2024-02-23T11:58:55;16.91;51.88
83596;HTU21D;73564;45.026;38.952;2024-02-23T12:01:21;16.91;51.75
83596;HTU21D;73564;45.026;38.952;2024-02-23T12:03:47;16.89;51.69
83596;HTU21D;73564;45.026;38.952;2024-02-23T12:06:14;16.86;51.69
83596;HTU21D;73564;45.026;38.952;2024-02-23T12:08:43;16.84;51.49
83596;HTU21D;73564;45.026;38.952;2024-02-23T12:11:11;16.82;51.56
83596;HTU21D;73564;45.026;38.952;2024-02-23T12:13:38;16.84;51.57
83596;HTU21D;73564;45.026;38.952;2024-02-23T12:16:04;16.86;51.50
83596;HTU21D;73564;45.026;38.952;2024-02-23T12:18:34;16.87;51.08
83596;HTU21D;73564;45.026;38.952;2024-02-23T12:21:01;16.82;51.11
83596;HTU21D;73564;45.026;38.952;2024-02-23T12:23:41;16.79;50.89
83596;HTU21D;73564;45.026;38.952;2024-02-23T12:26:07;16.74;51.11
83596;HTU21D;73564;45.026;38.952;2024-02-23T12:28:33;16.72;51.11
83596;HTU21D;73564;45.026;38.952;2024-02-23T12:31:03;16.72;50.84
83596;HTU21D;73564;45.026;38.952;2024-02-23T12:33:31;16.67;50.81
83596;HTU21D;73564;45.026;38.952;2024-02-23T12:36:01;16.65;50.21
83596;HTU21D;73564;45.026;38.952;2024-02-23T12:38:27;16.60;50.51
83596;HTU21D;73564;45.026;38.952;2024-02-23T12:40:53;16.60;50.72
83596;HTU21D;73564;45.026;38.952;2024-02-23T12:43:19;16.59;50.70
83596;HTU21D;73564;45.026;38.952;2024-02-23T12:45:56;16.60;50.44
83596;HTU21D;73564;45.026;38.952;2024-02-23T12:48:23;16.61;50.55
83596;HTU21D;73564;45.026;38.952;2024-02-23T12:50:49;16.62;50.37
83596;HTU21D;73564;45.026;38.952;2024-02-23T12:53:35;16.55;47.18
83596;HTU21D;73564;45.026;38.952;2024-02-23T12:56:06;16.54;50.27
83596;HTU21D;73564;45.026;38.952;2024-02-23T12:58:39;16.52;49.98
83596;HTU21D;73564;45.026;38.952;2024-02-23T13:01:06;16.50;50.06
83596;HTU21D;73564;45.026;38.952;2024-02-23T13:03:34;16.51;50.02
83596;HTU21D;73564;45.026;38.952;2024-02-23T13:06:00;16.52;49.92
83596;HTU21D;73564;45.026;38.952;2024-02-23T13:08:26;16.52;49.84
83596;HTU21D;73564;45.026;38.952;2024-02-23T13:10:53;16.54;49.85
83596;HTU21D;73564;45.026;38.952;2024-02-23T13:13:21;16.55;49.94
83596;HTU21D;73564;45.026;38.952;2024-02-23T13:15:48;16.61;49.72
83596;HTU21D;73564;45.026;38.952;2024-02-23T13:18:14;16.67;49.00
83596;HTU21D;73564;45.026;38.952;2024-02-23T13:23:42;16.48;48.55
83596;HTU21D;73564;45.026;38.952;2024-02-23T13:26:09;16.28;48.79
83596;HTU21D;73564;45.026;38.952;2024-02-23T13:28:39;16.14;49.08
83596;HTU21D;73564;45.026;38.952;2024-02-23T13:31:04;16.10;49.61
83596;HTU21D;73564;45.026;38.952;2024-02-23T13:33:30;16.11;49.66
83596;HTU21D;73564;45.026;38.952;2024-02-23T13:35:56;16.11;49.60
83596;HTU21D;73564;45.026;38.952;2024-02-23T13:38:22;16.13;49.36
83596;HTU21D;73564;45.026;38.952;2024-02-23T13:40:48;16.11;49.47
83596;HTU21D;73564;45.026;38.952;2024-02-23T13:43:13;16.07;49.28
83596;HTU21D;73564;45.026;38.952;2024-02-23T13:45:52;16.00;49.00
83596;HTU21D;73564;45.026;38.952;2024-02-23T13:48:19;15.92;49.15
83596;HTU21D;73564;45.026;38.952;2024-02-23T13:50:48;15.86;49.27
83596;HTU21D;73564;45.026;38.952;2024-02-23T13:53:14;15.81;49.22
83596;HTU21D;73564;45.026;38.952;2024-02-23T13:55:41;15.84;49.47
83596;HTU21D;73564;45.026;38.952;2024-02-23T13:58:10;15.98;49.31
83596;HTU21D;73564;45.026;38.952;2024-02-23T14:00:36;16.10;48.74
83596;HTU21D;73564;45.026;38.952;2024-02-23T14:03:03;16.10;48.70
83596;HTU21D;73564;45.026;38.952;2024-02-23T14:05:29;16.05;48.37
83596;HTU21D;73564;45.026;38.952;2024-02-23T14:07:54;15.96;48.58
83596;HTU21D;73564;45.026;38.952;2024-02-23T14:10:20;15.85;48.63
83596;HTU21D;73564;45.026;38.952;2024-02-23T14:12:46;15.72;48.91
83596;HTU21D;73564;45.026;38.952;2024-02-23T14:15:12;15.61;49.05
83596;HTU21D;73564;45.026;38.952;2024-02-23T14:17:38;15.53;49.04
83596;HTU21D;73564;45.026;38.952;2024-02-23T14:20:05;15.45;48.99
83596;HTU21D;73564;45.026;38.952;2024-02-23T14:22:32;15.37;49.42
83596;HTU21D;73564;45.026;38.952;2024-02-23T14:24:58;15.29;49.66
83596;HTU21D;73564;45.026;38.952;2024-02-23T14:27:24;15.22;49.59
83596;HTU21D;73564;45.026;38.952;2024-02-23T14:29:50;15.11;49.80
83596;HTU21D;73564;45.026;38.952;2024-02-23T14:32:17;15.07;50.39
83596;HTU21D;73564;45.026;38.952;2024-02-23T14:34:43;15.15;50.55
83596;HTU21D;73564;45.026;38.952;2024-02-23T14:37:09;15.30;50.62
83596;HTU21D;73564;45.026;38.952;2024-02-23T14:39:35;15.47;50.67
83596;HTU21D;73564;45.026;38.952;2024-02-23T14:42:01;15.60;49.92
83596;HTU21D;73564;45.026;38.952;2024-02-23T14:44:27;15.63;49.80
83596;HTU21D;73564;45.026;38.952;2024-02-23T14:46:53;15.68;49.79
83596;HTU21D;73564;45.026;38.952;2024-02-23T14:49:19;15.72;49.87
83596;HTU21D;73564;45.026;38.952;2024-02-23T14:51:45;15.77;48.60
83596;HTU21D;73564;45.026;38.952;2024-02-23T14:54:12;15.70;49.31
83596;HTU21D;73564;45.026;38.952;2024-02-23T14:56:39;15.71;49.24
83596;HTU21D;73564;45.026;38.952;2024-02-23T14:59:06;15.68;49.40
83596;HTU21D;73564;45.026;38.952;2024-02-23T15:01:38;15.65;49.19
83596;HTU21D;73564;45.026;38.952;2024-02-23T15:04:06;15.60;49.34
83596;HTU21D;73564;45.026;38.952;2024-02-23T15:06:32;15.54;49.39
83596;HTU21D;73564;45.026;38.952;2024-02-23T15:08:58;15.45;49.47